createdAt,value
2023-02-03T00:05:52.291Z,1.00
2023-02-03T00:11:45.671Z,1.00
2023-02-03T00:17:39.944Z,1.00
2023-02-03T00:23:34.463Z,1.00
2023-02-03T00:29:27.961Z,1.00
2023-02-03T00:35:22.847Z,1.00
2023-02-03T00:41:16.242Z,1.00
2023-02-03T00:47:09.279Z,1.00
2023-02-03T00:53:04.162Z,1.00
2023-02-03T00:58:57.139Z,1.00
2023-02-03T01:04:50.266Z,21.60
2023-02-03T01:10:45.097Z,50.20
2023-02-03T01:16:38.566Z,91.20
2023-02-03T01:22:31.658Z,99.90
2023-02-03T01:28:25.972Z,99.90
2023-02-03T01:34:19.626Z,99.90
2023-02-03T01:40:14.125Z,99.90
2023-02-03T01:46:26.014Z,99.90
2023-02-03T01:52:19.645Z,99.90
2023-02-03T01:58:16.624Z,99.90
2023-02-03T02:04:12.318Z,99.90
2023-02-03T02:10:06.793Z,99.90
2023-02-03T02:16:07.958Z,99.90
2023-02-03T02:22:11.433Z,99.90
2023-02-03T02:28:27.913Z,99.90
2023-02-03T02:34:29.800Z,99.90
2023-02-03T02:40:27.807Z,99.90
2023-02-03T02:46:26.498Z,99.90
2023-02-03T02:52:23.185Z,99.90
2023-02-03T02:58:20.549Z,99.90
2023-02-03T03:04:17.002Z,99.90
2023-02-03T03:10:18.195Z,99.90
2023-02-03T03:16:26.683Z,97.40
2023-02-03T03:22:23.855Z,81.80
2023-02-03T03:28:27.000Z,61.60
2023-02-03T03:34:20.643Z,45.90
2023-02-03T03:40:19.946Z,26.50
2023-02-03T03:46:18.077Z,13.90
2023-02-03T03:52:13.641Z,1.00
2023-02-03T03:58:11.778Z,1.00
2023-02-03T04:04:10.822Z,1.00
2023-02-03T04:10:05.830Z,2.90
2023-02-03T04:15:59.016Z,17.80
2023-02-03T04:21:53.964Z,29.70
2023-02-03T04:27:47.448Z,44.30
2023-02-03T04:33:40.523Z,73.90
2023-02-03T04:39:35.333Z,94.50
2023-02-03T04:45:28.446Z,99.90
2023-02-03T04:51:21.876Z,99.90
2023-02-03T04:57:16.787Z,99.90
2023-02-03T05:03:09.796Z,99.90
2023-02-03T05:09:03.320Z,99.90
2023-02-03T05:14:58.119Z,99.90
2023-02-03T05:20:51.587Z,99.90
2023-02-03T05:26:45.068Z,99.90
2023-02-03T05:32:39.963Z,99.90
2023-02-03T05:38:33.443Z,99.90
2023-02-03T05:44:28.611Z,99.90
2023-02-03T05:50:23.011Z,99.90
2023-02-03T05:56:18.283Z,99.90
2023-02-03T06:02:11.354Z,99.90
2023-02-03T06:08:06.494Z,99.90
2023-02-03T06:14:00.783Z,99.90
2023-02-03T06:19:53.882Z,99.90
2023-02-03T06:25:50.487Z,99.90
2023-02-03T06:31:44.051Z,99.90
2023-02-03T06:37:37.577Z,99.90
2023-02-03T06:43:32.393Z,99.90
2023-02-03T06:49:25.982Z,99.90
2023-02-03T06:55:19.163Z,99.90
2023-02-03T07:01:14.099Z,99.90
2023-02-03T07:07:07.218Z,99.90
2023-02-03T07:13:05.072Z,99.90
2023-02-03T07:19:00.485Z,99.90
2023-02-03T07:24:53.991Z,99.90
2023-02-03T07:30:49.459Z,99.90
2023-02-03T07:36:43.810Z,99.90
2023-02-03T07:42:37.020Z,99.90
2023-02-03T07:48:30.091Z,99.90
2023-02-03T07:54:24.889Z,99.90
2023-02-03T08:00:19.313Z,99.90
2023-02-03T08:06:12.409Z,99.90
2023-02-03T08:12:07.823Z,99.90
2023-02-03T08:18:01.243Z,99.90
2023-02-03T08:23:54.658Z,99.90
2023-02-03T08:29:50.271Z,99.90
2023-02-03T08:35:47.472Z,99.90
2023-02-03T08:41:40.870Z,99.90
2023-02-03T08:47:36.773Z,99.90
2023-02-03T08:53:29.857Z,99.90
2023-02-03T08:59:23.436Z,50.00
2023-02-03T09:05:18.589Z,7.10
2023-02-03T09:11:13.988Z,1.00
2023-02-03T09:17:08.745Z,1.00
2023-02-03T09:23:03.583Z,1.00
2023-02-03T09:28:56.973Z,1.00
2023-02-03T09:34:50.403Z,1.00
2023-02-03T09:40:45.653Z,1.00
2023-02-03T09:46:44.907Z,1.00
2023-02-03T09:52:40.283Z,1.00
2023-02-03T09:58:36.432Z,1.00
2023-02-03T10:04:35.559Z,1.00
2023-02-03T10:10:40.180Z,1.00
2023-02-03T10:16:48.489Z,1.00
2023-02-03T10:22:46.005Z,1.00
2023-02-03T10:28:46.708Z,1.00
2023-02-03T10:34:44.570Z,1.00
2023-02-03T10:40:38.442Z,1.00
2023-02-03T10:53:57.965Z,1.00
2023-02-03T10:59:51.003Z,1.00
2023-02-03T11:05:44.119Z,1.00
2023-02-03T11:11:41.586Z,1.00
2023-02-03T11:17:38.334Z,1.00
2023-02-03T11:23:31.819Z,1.00
2023-02-03T11:29:29.703Z,1.00
2023-02-03T11:35:25.778Z,1.00
2023-02-03T11:41:23.872Z,1.00
2023-02-03T11:47:20.185Z,1.00
2023-02-03T11:53:28.103Z,99.90
2023-02-03T11:59:44.208Z,99.90
2023-02-03T12:06:20.037Z,99.90
2023-02-03T12:12:47.030Z,99.90
2023-02-03T12:18:53.660Z,99.90
2023-02-03T12:24:58.875Z,99.90
2023-02-03T12:31:00.325Z,99.90
2023-02-03T12:36:59.234Z,99.90
2023-02-03T12:42:59.617Z,99.90
2023-02-03T12:48:59.240Z,99.90
2023-02-03T12:55:02.595Z,99.90
2023-02-03T13:01:02.191Z,99.90
2023-02-03T13:07:02.064Z,99.90
2023-02-03T13:12:58.650Z,99.90
2023-02-03T13:18:58.065Z,99.90
2023-02-03T13:24:56.996Z,99.90
2023-02-03T13:31:14.606Z,99.90
2023-02-03T13:37:59.250Z,99.90
2023-02-03T13:43:54.458Z,99.90
2023-02-03T13:49:54.040Z,99.90
2023-02-03T13:55:55.544Z,99.90
2023-02-03T14:01:49.432Z,99.90
2023-02-03T14:07:42.835Z,99.90
2023-02-03T14:13:37.188Z,99.90
2023-02-03T14:19:56.358Z,99.90
2023-02-03T14:25:52.291Z,99.90
2023-02-03T14:32:02.052Z,99.90
2023-02-03T14:37:58.794Z,99.90
2023-02-03T14:44:00.309Z,99.90
2023-02-03T14:50:11.111Z,99.90
2023-02-03T14:56:14.847Z,99.90
2023-02-03T15:02:15.900Z,99.90
2023-02-03T15:08:45.911Z,99.90
2023-02-03T15:14:38.960Z,99.90
2023-02-03T15:20:38.676Z,99.90
2023-02-03T15:26:33.491Z,99.90
2023-02-03T15:32:32.435Z,99.90
2023-02-03T15:38:30.691Z,99.90
2023-02-03T15:44:32.835Z,99.90
2023-02-03T15:50:34.282Z,99.90
2023-02-03T15:56:37.701Z,99.90
2023-02-03T16:02:35.701Z,99.90
2023-02-03T16:08:43.046Z,99.90
2023-02-03T16:14:38.010Z,99.90
2023-02-03T16:20:33.340Z,99.90
2023-02-03T16:26:27.858Z,99.90
2023-02-03T16:32:39.897Z,1.00
2023-02-03T16:38:51.730Z,1.00
2023-02-03T16:45:02.837Z,1.00
2023-02-03T16:50:58.189Z,1.00
2023-02-03T16:56:53.950Z,1.00
2023-02-03T17:02:46.945Z,1.00
2023-02-03T17:08:41.388Z,1.00
2023-02-03T17:14:35.887Z,1.00
2023-02-03T17:20:28.847Z,1.00
2023-02-03T17:26:22.309Z,1.00
2023-02-03T17:32:17.348Z,1.00
2023-02-03T17:38:11.218Z,1.00
2023-02-03T17:56:29.157Z,1.00
2023-02-03T18:02:22.752Z,1.00
2023-02-03T18:08:20.480Z,1.00
2023-02-03T18:14:18.011Z,1.00
2023-02-03T18:20:13.172Z,1.00
2023-02-03T18:26:10.335Z,1.00
2023-02-03T18:32:03.354Z,1.00
2023-02-03T18:37:56.883Z,1.00
2023-02-03T18:43:51.469Z,1.00
2023-02-03T18:49:44.494Z,1.00
2023-02-03T18:55:38.223Z,1.00
2023-02-03T19:01:33.269Z,1.00
2023-02-03T19:07:27.497Z,1.00
2023-02-03T19:13:21.017Z,1.00
2023-02-03T19:19:15.788Z,1.00
2023-02-03T19:25:09.526Z,1.00
2023-02-03T19:31:08.482Z,1.00
2023-02-03T19:37:03.506Z,1.00
2023-02-03T19:42:56.506Z,1.00
2023-02-03T19:48:49.833Z,1.00
2023-02-03T19:54:44.574Z,1.00
2023-02-03T20:00:38.168Z,1.00
2023-02-03T20:06:31.975Z,1.00
2023-02-03T20:12:26.683Z,1.00
2023-02-03T20:18:20.120Z,1.00
2023-02-03T20:24:13.938Z,1.00
2023-02-03T20:30:10.085Z,1.00
2023-02-03T20:36:03.499Z,1.00
2023-02-03T20:41:57.317Z,1.00
2023-02-03T20:47:52.569Z,1.00
2023-02-03T20:53:45.590Z,1.00
2023-02-03T20:59:39.072Z,1.00
2023-02-03T21:05:37.562Z,1.00
2023-02-03T21:11:31.440Z,1.00
2023-02-03T21:17:26.801Z,1.00
2023-02-03T21:23:23.277Z,1.00
2023-02-03T21:29:23.188Z,1.00
2023-02-03T21:35:26.032Z,1.00
2023-02-03T21:41:22.724Z,1.00
2023-02-03T21:47:20.604Z,1.00
2023-02-03T21:53:26.133Z,1.00
2023-02-03T21:59:22.762Z,1.00
2023-02-03T22:05:17.460Z,1.00
2023-02-03T22:11:11.643Z,1.00
2023-02-03T22:17:06.371Z,1.00
2023-02-03T22:22:59.273Z,1.00
2023-02-03T22:28:52.663Z,1.00
2023-02-03T22:34:47.593Z,1.00
2023-02-03T22:40:41.003Z,1.00
2023-02-03T22:46:34.420Z,1.00
2023-02-03T22:52:29.173Z,1.00
2023-02-03T22:58:22.562Z,1.00
2023-02-03T23:04:15.927Z,1.00
2023-02-03T23:10:13.748Z,1.00
2023-02-03T23:16:07.575Z,1.00
2023-02-03T23:22:00.948Z,1.00
2023-02-03T23:27:55.774Z,1.00
2023-02-03T23:34:03.109Z,1.00
2023-02-03T23:39:56.665Z,1.00
2023-02-03T23:45:51.224Z,1.00
2023-02-03T23:51:44.185Z,1.00
2023-02-03T23:57:37.598Z,1.00
